createdAt,value
2019-05-06T00:00:33.971Z,88.70
2019-05-06T00:03:05.091Z,88.20
2019-05-06T00:05:36.084Z,87.80
2019-05-06T00:08:06.745Z,87.90
2019-05-06T00:10:37.718Z,88.20
2019-05-06T00:13:08.747Z,88.70
2019-05-06T00:15:39.326Z,88.20
2019-05-06T00:18:09.783Z,87.80
2019-05-06T00:20:40.377Z,87.30
2019-05-06T00:23:25.438Z,86.50
2019-05-06T00:26:16.382Z,86.80
2019-05-06T00:28:53.923Z,87.50
2019-05-06T00:31:24.847Z,88.90
2019-05-06T00:33:55.889Z,89.70
2019-05-06T00:36:26.465Z,89.40
2019-05-06T00:39:00.482Z,89.70
2019-05-06T00:41:36.460Z,90.20
2019-05-06T00:44:06.694Z,90.70
2019-05-06T00:46:37.243Z,90.80
2019-05-06T00:49:07.716Z,90.80
2019-05-06T00:51:38.441Z,90.80
2019-05-06T00:54:15.186Z,90.70
2019-05-06T00:56:46.068Z,90.50
2019-05-06T00:59:16.900Z,90.30
2019-05-06T01:01:47.634Z,90.40
2019-05-06T01:04:18.218Z,90.30
2019-05-06T01:06:49.073Z,90.20
2019-05-06T01:09:20.736Z,90.20
2019-05-06T01:11:54.197Z,90.20
2019-05-06T01:14:32.078Z,89.00
2019-05-06T01:17:03.967Z,89.80
2019-05-06T01:19:34.558Z,88.10
2019-05-06T01:22:05.194Z,88.50
2019-05-06T01:24:36.126Z,88.90
2019-05-06T01:27:07.834Z,88.50
2019-05-06T01:29:38.333Z,88.30
2019-05-06T01:32:08.845Z,87.90
2019-05-06T01:34:39.299Z,88.80
2019-05-06T01:37:09.874Z,87.60
2019-05-06T01:39:58.190Z,87.30
2019-05-06T01:42:36.639Z,85.70
2019-05-06T01:45:07.911Z,83.80
2019-05-06T01:47:38.391Z,82.30
2019-05-06T01:50:09.412Z,81.50
2019-05-06T01:52:40.185Z,80.70
2019-05-06T01:55:11.119Z,80.60
2019-05-06T01:57:41.689Z,80.10
2019-05-06T02:00:14.058Z,78.70
2019-05-06T02:02:45.695Z,78.00
2019-05-06T02:05:16.306Z,77.90
2019-05-06T02:07:47.055Z,77.80
2019-05-06T02:10:17.712Z,76.40
2019-05-06T02:12:48.408Z,76.90
2019-05-06T02:15:18.907Z,77.00
2019-05-06T02:17:49.614Z,77.40
2019-05-06T02:20:20.281Z,77.60
2019-05-06T02:22:56.700Z,78.30
2019-05-06T02:25:34.153Z,78.50
2019-05-06T02:28:04.885Z,79.00
2019-05-06T02:30:54.823Z,79.20
2019-05-06T02:33:47.427Z,79.70
2019-05-06T02:36:29.179Z,79.30
2019-05-06T02:38:59.784Z,80.20
2019-05-06T02:41:33.964Z,80.10
2019-05-06T02:44:04.740Z,80.70
2019-05-06T02:46:36.123Z,80.40
2019-05-06T02:49:20.151Z,80.20
2019-05-06T02:51:53.470Z,80.70
2019-05-06T02:54:23.704Z,80.80
2019-05-06T02:56:54.165Z,80.50
2019-05-06T02:59:24.732Z,80.90
2019-05-06T03:01:55.322Z,81.20
2019-05-06T03:04:25.775Z,82.00
2019-05-06T03:06:57.192Z,82.50
2019-05-06T03:09:27.799Z,82.50
2019-05-06T03:11:58.459Z,82.40
2019-05-06T03:14:29.060Z,82.30
2019-05-06T03:16:59.667Z,82.70
2019-05-06T03:19:34.116Z,82.70
2019-05-06T03:22:24.094Z,82.50
2019-05-06T03:25:18.956Z,82.60
2019-05-06T03:27:49.617Z,82.80
2019-05-06T03:30:24.993Z,83.10
2019-05-06T03:33:27.609Z,83.40
2019-05-06T03:35:42.003Z,83.30
2019-05-06T03:37:57.298Z,83.30
2019-05-06T03:40:27.887Z,83.50
2019-05-06T03:42:58.470Z,83.70
2019-05-06T03:45:42.728Z,83.60
2019-05-06T03:48:24.511Z,83.70
2019-05-06T03:50:56.022Z,83.50
2019-05-06T03:53:33.310Z,83.70
2019-05-06T03:56:03.579Z,83.80
2019-05-06T03:58:36.593Z,83.90
2019-05-06T04:01:07.696Z,83.30
2019-05-06T04:03:46.769Z,83.40
2019-05-06T04:06:13.766Z,83.50
2019-05-06T04:08:44.479Z,83.30
2019-05-06T04:11:18.052Z,83.30
2019-05-06T04:13:53.205Z,82.90
2019-05-06T04:16:33.628Z,82.60
2019-05-06T04:19:23.743Z,83.10
2019-05-06T04:22:12.761Z,82.60
2019-05-06T04:24:54.921Z,82.20
2019-05-06T04:27:42.967Z,82.20
2019-05-06T04:30:14.485Z,82.10
2019-05-06T04:32:45.083Z,82.00
2019-05-06T04:35:15.965Z,81.60
2019-05-06T04:37:47.302Z,81.30
2019-05-06T04:40:19.087Z,81.50
2019-05-06T04:42:52.692Z,80.90
2019-05-06T04:45:25.250Z,81.10
2019-05-06T04:47:56.129Z,80.80
2019-05-06T04:50:27.042Z,80.80
2019-05-06T04:53:04.888Z,81.00
2019-05-06T04:55:37.344Z,80.20
2019-05-06T04:58:08.198Z,80.20
2019-05-06T05:00:39.268Z,80.30
2019-05-06T05:03:10.348Z,79.80
2019-05-06T05:05:41.158Z,79.10
2019-05-06T05:08:13.317Z,79.20
2019-05-06T05:11:09.584Z,78.10
2019-05-06T05:14:21.714Z,77.90
2019-05-06T05:16:55.308Z,78.20
2019-05-06T05:19:26.430Z,78.90
2019-05-06T05:22:06.216Z,78.20
2019-05-06T05:24:38.491Z,76.70
2019-05-06T05:27:09.609Z,76.50
2019-05-06T05:29:42.220Z,76.60
2019-05-06T05:32:12.896Z,75.40
2019-05-06T05:34:43.716Z,75.80
2019-05-06T05:37:14.867Z,74.80
2019-05-06T05:39:45.842Z,73.50
2019-05-06T05:42:22.578Z,73.30
2019-05-06T05:44:53.842Z,73.50
2019-05-06T05:47:24.417Z,73.50
2019-05-06T05:50:22.671Z,72.50
2019-05-06T05:52:53.153Z,71.80
2019-05-06T05:55:24.015Z,71.50
2019-05-06T05:57:54.645Z,71.10
2019-05-06T06:00:27.343Z,71.30
2019-05-06T06:02:58.369Z,70.60
2019-05-06T06:05:29.255Z,70.10
2019-05-06T06:08:02.652Z,69.70
2019-05-06T06:10:44.160Z,68.40
2019-05-06T06:13:15.226Z,68.30
2019-05-06T06:16:20.293Z,67.50
2019-05-06T06:19:13.110Z,67.80
2019-05-06T06:21:48.056Z,67.40
2019-05-06T06:24:49.745Z,66.70
2019-05-06T06:27:22.240Z,66.20
2019-05-06T06:29:52.986Z,67.00
2019-05-06T06:32:25.782Z,67.30
2019-05-06T06:35:14.773Z,66.60
2019-05-06T06:37:54.214Z,66.90
2019-05-06T06:40:27.037Z,66.60
2019-05-06T06:43:04.686Z,67.10
2019-05-06T06:45:36.739Z,66.60
2019-05-06T06:48:07.752Z,65.70
2019-05-06T06:50:38.347Z,65.70
2019-05-06T06:53:09.493Z,66.80
2019-05-06T06:55:42.671Z,66.70
2019-05-06T06:58:32.925Z,66.90
2019-05-06T07:01:23.500Z,65.40
2019-05-06T07:04:10.035Z,64.40
2019-05-06T07:06:55.979Z,61.50
2019-05-06T07:09:29.636Z,62.60
2019-05-06T07:11:58.975Z,63.50
2019-05-06T07:14:32.221Z,63.80
2019-05-06T07:17:02.458Z,62.90
2019-05-06T07:19:42.133Z,62.60
2019-05-06T07:22:12.733Z,62.20
2019-05-06T07:24:43.459Z,62.30
2019-05-06T07:27:23.040Z,63.10
2019-05-06T07:29:54.818Z,62.60
2019-05-06T07:32:25.444Z,62.30
2019-05-06T07:34:56.224Z,63.50
2019-05-06T07:37:28.987Z,64.50
2019-05-06T07:39:59.626Z,62.80
2019-05-06T07:42:40.208Z,62.30
2019-05-06T07:45:35.920Z,61.60
2019-05-06T07:48:08.821Z,61.40
2019-05-06T07:50:39.374Z,61.10
2019-05-06T07:53:10.564Z,61.10
2019-05-06T07:55:42.378Z,62.60
2019-05-06T07:58:14.202Z,62.70
2019-05-06T08:00:44.658Z,63.20
2019-05-06T08:03:15.327Z,63.20
2019-05-06T08:05:55.864Z,61.60
2019-05-06T08:08:18.768Z,61.20
2019-05-06T08:10:50.237Z,60.40
2019-05-06T08:13:22.594Z,60.50
2019-05-06T08:15:53.659Z,60.40
2019-05-06T08:18:24.993Z,60.10
2019-05-06T08:20:56.950Z,58.20
2019-05-06T08:23:49.044Z,56.50
2019-05-06T08:26:22.254Z,54.60
2019-05-06T08:28:52.928Z,54.30
2019-05-06T08:31:24.205Z,54.20
2019-05-06T08:33:54.679Z,55.20
2019-05-06T08:36:44.686Z,55.90
2019-05-06T08:39:15.370Z,55.70
2019-05-06T08:41:46.151Z,54.90
2019-05-06T08:44:17.323Z,53.80
2019-05-06T08:46:47.938Z,52.60
2019-05-06T08:49:18.812Z,54.50
2019-05-06T08:52:06.292Z,54.10
2019-05-06T08:54:44.000Z,54.00
2019-05-06T08:57:15.152Z,53.80
2019-05-06T08:59:46.026Z,54.20
2019-05-06T09:02:17.393Z,51.60
2019-05-06T09:04:48.338Z,51.40
2019-05-06T09:07:19.261Z,50.90
2019-05-06T09:09:50.032Z,50.50
2019-05-06T09:12:22.372Z,51.50
2019-05-06T09:14:54.038Z,51.00
2019-05-06T09:17:24.986Z,50.00
2019-05-06T09:19:55.664Z,50.10
2019-05-06T09:22:26.524Z,48.80
2019-05-06T09:24:57.175Z,49.30
2019-05-06T09:27:45.670Z,49.80
2019-05-06T09:30:23.027Z,49.80
2019-05-06T09:32:54.057Z,49.90
2019-05-06T09:35:25.336Z,49.90
2019-05-06T09:37:56.234Z,49.00
2019-05-06T09:40:26.901Z,47.80
2019-05-06T09:42:57.719Z,47.20
2019-05-06T09:45:28.361Z,47.20
2019-05-06T09:48:13.880Z,48.30
2019-05-06T09:50:46.751Z,48.70
2019-05-06T09:53:23.102Z,48.90
2019-05-06T09:56:18.965Z,50.20
2019-05-06T09:58:49.679Z,51.90
2019-05-06T10:01:22.471Z,51.60
2019-05-06T10:03:53.329Z,50.10
2019-05-06T10:06:24.038Z,51.10
2019-05-06T10:08:54.819Z,51.60
2019-05-06T10:11:25.596Z,51.70
2019-05-06T10:13:56.861Z,51.80
2019-05-06T10:16:27.735Z,51.20
2019-05-06T10:18:59.077Z,51.70
2019-05-06T10:21:32.184Z,51.70
2019-05-06T10:24:03.015Z,52.50
2019-05-06T10:26:37.616Z,52.20
2019-05-06T10:29:43.241Z,52.80
2019-05-06T10:32:45.458Z,52.70
2019-05-06T10:35:16.428Z,53.10
2019-05-06T10:38:14.324Z,53.10
2019-05-06T10:41:02.800Z,52.80
2019-05-06T10:44:04.113Z,52.80
2019-05-06T10:46:35.424Z,53.40
2019-05-06T10:49:06.042Z,52.70
2019-05-06T10:51:44.405Z,53.40
2019-05-06T10:54:15.060Z,53.80
2019-05-06T10:57:02.142Z,51.90
2019-05-06T10:59:32.727Z,52.60
2019-05-06T11:02:25.863Z,52.80
2019-05-06T11:04:56.657Z,52.10
2019-05-06T11:07:31.766Z,51.10
2019-05-06T11:10:02.436Z,50.90
2019-05-06T11:12:34.051Z,51.10
2019-05-06T11:15:05.502Z,51.30
2019-05-06T11:17:36.663Z,51.10
2019-05-06T11:20:10.585Z,51.50
2019-05-06T11:22:43.364Z,51.10
2019-05-06T11:25:14.662Z,51.30
2019-05-06T11:27:45.471Z,51.60
2019-05-06T11:30:35.013Z,51.30
2019-05-06T11:33:15.940Z,51.50
2019-05-06T11:35:58.984Z,51.40
2019-05-06T11:38:31.919Z,50.80
2019-05-06T11:41:02.362Z,51.60
2019-05-06T11:43:33.328Z,50.70
2019-05-06T11:46:04.047Z,49.70
2019-05-06T11:48:35.084Z,50.40
2019-05-06T11:51:07.495Z,48.30
2019-05-06T11:53:38.340Z,48.30
2019-05-06T11:56:08.855Z,49.20
2019-05-06T11:58:44.112Z,48.50
2019-05-06T12:01:33.663Z,49.60
2019-05-06T12:04:04.615Z,49.00
2019-05-06T12:06:36.577Z,48.30
2019-05-06T12:09:13.233Z,48.30
2019-05-06T12:11:43.220Z,47.50
2019-05-06T12:14:14.295Z,46.90
2019-05-06T12:16:44.993Z,47.20
2019-05-06T12:19:16.050Z,46.30
2019-05-06T12:21:46.701Z,46.30
2019-05-06T12:24:17.526Z,46.90
2019-05-06T12:26:48.565Z,46.20
2019-05-06T12:29:19.466Z,46.60
2019-05-06T12:31:57.449Z,47.40
2019-05-06T12:34:28.162Z,47.20
2019-05-06T12:37:02.695Z,48.20
2019-05-06T12:39:33.938Z,48.70
2019-05-06T12:42:26.254Z,49.00
2019-05-06T12:45:19.744Z,49.00
2019-05-06T12:47:57.070Z,49.30
2019-05-06T12:50:27.612Z,49.50
2019-05-06T12:53:00.320Z,47.80
2019-05-06T12:55:33.469Z,48.80
2019-05-06T12:58:03.660Z,49.10
2019-05-06T13:00:34.684Z,48.90
2019-05-06T13:03:05.842Z,48.10
2019-05-06T13:05:36.775Z,48.80
2019-05-06T13:08:07.924Z,48.00
2019-05-06T13:10:38.595Z,47.10
2019-05-06T13:13:09.392Z,47.30
2019-05-06T13:15:40.103Z,47.30
2019-05-06T13:18:10.672Z,47.10
2019-05-06T13:20:48.398Z,47.60
2019-05-06T13:23:24.608Z,48.10
2019-05-06T13:25:52.747Z,48.10
2019-05-06T13:28:24.901Z,48.00
2019-05-06T13:30:55.642Z,48.40
2019-05-06T13:33:39.757Z,49.00
2019-05-06T13:36:12.963Z,48.20
2019-05-06T13:38:43.083Z,48.20
2019-05-06T13:41:13.851Z,48.20
2019-05-06T13:44:13.279Z,47.80
2019-05-06T13:46:47.691Z,48.00
2019-05-06T13:49:42.579Z,47.70
2019-05-06T13:52:13.915Z,46.40
2019-05-06T13:54:45.864Z,45.40
2019-05-06T13:57:16.291Z,45.70
2019-05-06T13:59:48.585Z,45.20
2019-05-06T14:02:34.737Z,45.20
2019-05-06T14:05:06.693Z,45.00
2019-05-06T14:07:37.595Z,45.30
2019-05-06T14:10:08.488Z,45.90
2019-05-06T14:12:39.234Z,46.10
2019-05-06T14:15:12.320Z,46.60
2019-05-06T14:17:42.687Z,46.30
2019-05-06T14:20:15.942Z,46.50
2019-05-06T14:22:46.786Z,46.30
2019-05-06T14:25:48.604Z,45.30
2019-05-06T14:28:44.055Z,45.30
2019-05-06T14:31:25.334Z,45.90
2019-05-06T14:33:54.625Z,46.00
2019-05-06T14:36:27.556Z,46.30
2019-05-06T14:38:57.821Z,46.10
2019-05-06T14:41:28.904Z,46.40
2019-05-06T14:43:59.556Z,46.40
2019-05-06T14:46:51.058Z,46.90
2019-05-06T14:49:22.565Z,46.90
2019-05-06T14:51:53.790Z,47.40
2019-05-06T14:54:24.643Z,47.50
2019-05-06T14:56:59.406Z,47.10
2019-05-06T14:59:32.793Z,46.90
2019-05-06T15:02:03.247Z,47.10
2019-05-06T15:04:33.950Z,46.60
2019-05-06T15:07:04.783Z,46.70
2019-05-06T15:09:35.327Z,46.70
2019-05-06T15:12:06.140Z,46.10
2019-05-06T15:14:36.652Z,46.10
2019-05-06T15:17:07.819Z,45.40
2019-05-06T15:19:38.520Z,46.10
2019-05-06T15:22:09.606Z,46.30
2019-05-06T15:24:42.660Z,46.50
2019-05-06T15:27:12.974Z,46.80
2019-05-06T15:29:48.546Z,47.30
2019-05-06T15:32:25.487Z,46.80
2019-05-06T15:35:18.646Z,46.70
2019-05-06T15:38:02.426Z,46.80
2019-05-06T15:40:36.528Z,46.80
2019-05-06T15:43:05.846Z,47.30
2019-05-06T15:45:37.013Z,47.30
2019-05-06T15:48:07.907Z,47.60
2019-05-06T15:50:41.907Z,48.00
2019-05-06T15:53:12.586Z,48.20
2019-05-06T15:55:43.770Z,47.60
2019-05-06T15:58:14.891Z,48.30
2019-05-06T16:00:46.214Z,48.20
2019-05-06T16:03:17.148Z,48.10
2019-05-06T16:05:48.061Z,48.80
2019-05-06T16:08:19.047Z,48.20
2019-05-06T16:10:52.541Z,48.70
2019-05-06T16:13:22.563Z,48.20
2019-05-06T16:15:53.451Z,48.80
2019-05-06T16:18:24.223Z,48.80
2019-05-06T16:20:57.463Z,49.40
2019-05-06T16:23:36.692Z,50.30
2019-05-06T16:26:07.147Z,50.30
2019-05-06T16:28:37.913Z,50.50
2019-05-06T16:31:08.753Z,50.40
2019-05-06T16:33:39.575Z,50.90
2019-05-06T16:36:10.238Z,51.30
2019-05-06T16:38:42.827Z,52.30
2019-05-06T16:41:16.219Z,53.00
2019-05-06T16:43:46.433Z,52.60
2019-05-06T16:46:17.143Z,52.50
2019-05-06T16:48:47.856Z,52.10
2019-05-06T16:51:18.555Z,51.80
2019-05-06T16:53:49.587Z,51.70
2019-05-06T16:56:33.251Z,52.00
2019-05-06T16:59:04.548Z,51.80
2019-05-06T17:01:36.855Z,51.30
2019-05-06T17:04:23.197Z,51.10
2019-05-06T17:06:54.486Z,51.90
2019-05-06T17:09:27.762Z,51.60
2019-05-06T17:11:58.173Z,52.30
2019-05-06T17:14:29.367Z,53.00
2019-05-06T17:17:00.581Z,53.40
2019-05-06T17:19:32.907Z,54.10
2019-05-06T17:22:04.569Z,55.10
2019-05-06T17:24:35.442Z,56.00
2019-05-06T17:27:06.376Z,56.70
2019-05-06T17:29:49.790Z,57.30
2019-05-06T17:32:33.469Z,57.60
2019-05-06T17:35:06.270Z,58.00
2019-05-06T17:37:55.690Z,59.50
2019-05-06T17:40:27.009Z,61.00
2019-05-06T17:42:57.903Z,63.00
2019-05-06T17:46:06.838Z,64.50
2019-05-06T17:48:52.845Z,65.10
2019-05-06T17:51:28.679Z,65.60
2019-05-06T17:54:00.361Z,66.10
2019-05-06T17:56:31.395Z,66.80
2019-05-06T17:59:03.221Z,66.80
2019-05-06T18:01:38.208Z,66.80
2019-05-06T18:04:09.021Z,66.20
2019-05-06T18:06:42.227Z,66.20
2019-05-06T18:09:12.836Z,66.00
2019-05-06T18:11:57.842Z,67.20
2019-05-06T18:14:17.190Z,69.50
2019-05-06T18:16:49.878Z,70.50
2019-05-06T18:19:22.283Z,71.00
2019-05-06T18:21:53.203Z,71.80
2019-05-06T18:24:24.529Z,71.90
2019-05-06T18:26:55.145Z,71.30
2019-05-06T18:29:26.151Z,71.30
2019-05-06T18:31:57.615Z,71.90
2019-05-06T18:34:28.434Z,72.80
2019-05-06T18:36:59.307Z,74.40
2019-05-06T18:39:30.224Z,75.40
2019-05-06T18:42:13.388Z,75.20
2019-05-06T18:44:34.002Z,75.50
2019-05-06T18:47:05.039Z,75.10
2019-05-06T18:49:36.174Z,74.90
2019-05-06T18:52:07.074Z,75.50
2019-05-06T18:54:40.083Z,74.90
2019-05-06T18:57:12.785Z,74.80
2019-05-06T18:59:44.543Z,75.40
2019-05-06T19:02:15.174Z,75.40
2019-05-06T19:04:56.802Z,75.80
2019-05-06T19:07:28.003Z,74.50
2019-05-06T19:10:03.369Z,73.10
2019-05-06T19:12:40.667Z,73.60
2019-05-06T19:15:09.204Z,73.00
2019-05-06T19:17:44.036Z,71.20
2019-05-06T19:20:15.224Z,71.60
2019-05-06T19:22:46.833Z,66.80
2019-05-06T19:25:17.972Z,64.30
2019-05-06T19:27:48.863Z,56.30
2019-05-06T19:30:22.449Z,55.50
2019-05-06T19:32:53.747Z,58.90
2019-05-06T19:35:24.828Z,60.60
2019-05-06T19:37:55.405Z,60.60
2019-05-06T19:40:26.273Z,60.60
2019-05-06T19:42:57.238Z,60.10
2019-05-06T19:45:29.446Z,59.60
2019-05-06T19:48:02.866Z,59.90
2019-05-06T19:50:33.534Z,59.40
2019-05-06T19:53:04.460Z,59.90
2019-05-06T19:55:35.273Z,60.60
2019-05-06T19:58:06.448Z,61.30
2019-05-06T20:00:37.089Z,61.90
2019-05-06T20:03:07.865Z,62.70
2019-05-06T20:06:02.291Z,63.20
2019-05-06T20:08:42.968Z,63.20
2019-05-06T20:11:22.980Z,63.60
2019-05-06T20:13:53.738Z,64.10
2019-05-06T20:16:25.017Z,63.60
2019-05-06T20:18:55.810Z,64.10
2019-05-06T20:21:26.688Z,64.90
2019-05-06T20:23:57.786Z,65.40
2019-05-06T20:26:28.369Z,66.30
2019-05-06T20:28:59.267Z,67.10
2019-05-06T20:31:32.162Z,67.10
2019-05-06T20:34:02.804Z,67.10
2019-05-06T20:36:33.391Z,67.80
2019-05-06T20:39:06.102Z,66.50
2019-05-06T20:41:39.450Z,66.40
2019-05-06T20:44:12.342Z,66.40
2019-05-06T20:46:43.018Z,66.50
2019-05-06T20:49:13.931Z,66.60
2019-05-06T20:51:44.919Z,66.60
2019-05-06T20:54:16.133Z,66.50
2019-05-06T20:56:46.810Z,66.40
2019-05-06T20:59:17.851Z,66.60
2019-05-06T21:01:48.381Z,67.10
2019-05-06T21:04:19.394Z,67.30
2019-05-06T21:06:50.158Z,67.30
2019-05-06T21:09:23.141Z,68.20
2019-05-06T21:11:53.358Z,68.30
2019-05-06T21:14:24.320Z,68.40
2019-05-06T21:16:55.526Z,68.20
2019-05-06T21:19:26.261Z,68.30
2019-05-06T21:21:56.969Z,68.20
2019-05-06T21:24:27.839Z,68.60
2019-05-06T21:26:58.493Z,68.60
2019-05-06T21:29:29.540Z,68.80
2019-05-06T21:32:02.679Z,68.60
2019-05-06T21:34:33.027Z,68.30
2019-05-06T21:37:03.877Z,68.30
2019-05-06T21:39:35.024Z,68.50
2019-05-06T21:42:07.366Z,68.40
2019-05-06T21:44:38.519Z,68.40
2019-05-06T21:47:09.280Z,68.20
2019-05-06T21:49:42.198Z,68.20
2019-05-06T21:52:13.205Z,68.60
2019-05-06T21:54:44.009Z,68.50
2019-05-06T21:57:14.920Z,68.70
2019-05-06T21:59:45.566Z,68.50
2019-05-06T22:02:17.602Z,68.50
2019-05-06T22:04:48.067Z,68.60
2019-05-06T22:07:18.995Z,68.20
2019-05-06T22:09:49.896Z,68.60
2019-05-06T22:12:24.302Z,68.70
2019-05-06T22:14:53.089Z,68.40
2019-05-06T22:17:23.837Z,68.70
2019-05-06T22:19:54.384Z,68.70
2019-05-06T22:22:27.490Z,69.00
2019-05-06T22:24:58.130Z,69.20
2019-05-06T22:27:30.076Z,69.60
2019-05-06T22:30:03.067Z,69.70
2019-05-06T22:32:45.606Z,69.90
2019-05-06T22:35:17.577Z,70.00
2019-05-06T22:37:48.285Z,70.70
2019-05-06T22:40:23.562Z,71.00
2019-05-06T22:42:52.894Z,71.20
2019-05-06T22:45:23.720Z,71.50
2019-05-06T22:47:55.221Z,72.30
2019-05-06T22:50:26.149Z,71.70
2019-05-06T22:52:58.040Z,71.40
2019-05-06T22:55:29.056Z,71.90
2019-05-06T22:58:02.389Z,72.10
2019-05-06T23:00:35.015Z,72.60
2019-05-06T23:03:09.638Z,72.50
2019-05-06T23:05:42.262Z,72.30
2019-05-06T23:08:12.530Z,72.10
2019-05-06T23:10:44.606Z,72.50
2019-05-06T23:13:15.228Z,72.60
2019-05-06T23:15:45.929Z,72.60
2019-05-06T23:18:16.748Z,72.60
2019-05-06T23:20:47.311Z,72.60
2019-05-06T23:23:18.410Z,72.40
2019-05-06T23:26:07.900Z,72.60
2019-05-06T23:28:38.504Z,72.60
2019-05-06T23:31:09.090Z,72.60
2019-05-06T23:33:39.913Z,72.90
2019-05-06T23:36:12.085Z,73.20
2019-05-06T23:39:18.755Z,72.50
2019-05-06T23:42:25.023Z,72.50
2019-05-06T23:45:32.457Z,73.10
2019-05-06T23:48:39.371Z,73.60
2019-05-06T23:51:45.783Z,73.40
2019-05-06T23:54:52.453Z,73.00
2019-05-06T23:57:22.515Z,73.50
2019-05-06T23:59:54.645Z,73.50
